Details for Ryanair at EGPK




Go Back


Latest METAR
Local Time

EGPK 232350Z 13009KT 9999 FEW032 01/M03 Q1020

24/02/2018, 00:10:49

Description
Results
Ryanair Logo
Number of Pilots based at EGPK
0 Pilots Based here
Number of Ryanair Flights Departed from EGPK
2 Flights Departed
Number of Ryanair Flights Arrived at EGPK
3 Flights Arrived
Number of Ryanair Schedules Departing from EGPK
27 Schedules
Number of Ryanair Schedules Arriving at EGPK
28 Schedules
Number of Ryanair Schedules Departing from EGPK availible today
9 Schedules Today
Number of Ryanair Schedules Arriving at EGPK availible today
9 Schedules Today
Average Landing Rate at EGPK
-268 fpm
Ryanair Average Landing Rate at EGPK
-288 fpm
Total Fuel Purchased at EGPK by Ryanair
7,553.67 kgs / 16,652.82 lbs

Pilots Based at EGPK


Pilot ID
Pilot Name
Pilot Rank
No. of Flights
No. of Flying Hours
There are no pilots assigned to this hub!   Will you be the first?
Content